Time;durP1;ratioP1;P1;durP2;ratioP2;P2;SDS_P1;SDS_P2;PMS_P1;PMS_P2;Temp;Humidity;BMP_temperature;BMP_pressure;BME280_temperature;BME280_humidity;BME280_pressure;Samples;Min_cycle;Max_cycle;Signal;HPM_P1;HPM_P2
2022/09/26 00:00:47;;;;;;;0.00;0.00;;;11.30;99.90;;;;;;5073155;28;20150;-80
2022/09/26 00:03:13;;;;;;;0.03;0.03;;;11.40;99.90;;;;;;5073013;28;20040;-81
2022/09/26 00:05:39;;;;;;;0.00;0.00;;;11.40;99.90;;;;;;5072776;28;20132;-80
2022/09/26 00:08:06;;;;;;;0.10;0.00;;;11.40;99.90;;;;;;5072661;28;20099;-80
2022/09/26 00:10:33;;;;;;;0.20;0.13;;;11.40;99.90;;;;;;5072816;28;20484;-80
2022/09/26 00:12:59;;;;;;;0.00;0.00;;;11.30;99.90;;;;;;5056389;28;20396;-81
2022/09/26 00:15:25;;;;;;;1.23;0.20;;;11.40;99.90;;;;;;5056068;28;20053;-80
2022/09/26 00:17:51;;;;;;;0.00;0.00;;;11.40;99.90;;;;;;5072735;28;20041;-80
2022/09/26 00:20:16;;;;;;;0.00;0.00;;;11.40;99.90;;;;;;5055963;28;20053;-81
2022/09/26 00:22:42;;;;;;;0.00;0.00;;;11.40;99.90;;;;;;5055702;28;20384;-80
2022/09/26 00:25:08;;;;;;;0.00;0.00;;;11.40;99.90;;;;;;5072841;28;20040;-80
2022/09/26 00:27:34;;;;;;;0.00;0.00;;;11.40;99.90;;;;;;5072615;28;20498;-80
2022/09/26 00:29:59;;;;;;;0.00;0.00;;;11.40;99.90;;;;;;5055859;28;20123;-80
2022/09/26 00:32:25;;;;;;;0.00;0.00;;;11.40;99.90;;;;;;5055886;28;20044;-80
2022/09/26 00:34:50;;;;;;;2.85;0.93;;;11.30;99.90;;;;;;5072665;28;20392;-80
2022/09/26 00:37:16;;;;;;;0.00;0.00;;;11.40;99.90;;;;;;5055996;28;20045;-80
2022/09/26 00:39:42;;;;;;;0.00;0.00;;;11.40;99.90;;;;;;5056738;28;20040;-79
2022/09/26 00:42:13;;;;;;;0.00;0.00;;;11.40;99.90;;;;;;5076730;28;20052;-80
2022/09/26 00:44:48;;;;;;;0.00;0.00;;;11.40;99.90;;;;;;5076195;28;20131;-80
2022/09/26 00:47:23;;;;;;;0.00;0.00;;;11.30;99.90;;;;;;5059446;28;20050;-79
2022/09/26 00:49:51;;;;;;;0.10;0.00;;;11.30;99.90;;;;;;5076327;28;20051;-79
2022/09/26 00:52:22;;;;;;;0.00;0.00;;;11.30;99.90;;;;;;5059622;28;20535;-80
2022/09/26 00:54:51;;;;;;;0.00;0.00;;;11.30;99.90;;;;;;5059965;28;20048;-79
2022/09/26 00:57:21;;;;;;;0.00;0.00;;;11.30;99.90;;;;;;5078122;28;20139;-79
2022/09/26 00:59:52;;;;;;;0.00;0.00;;;11.30;99.90;;;;;;5062687;28;20399;-80
2022/09/26 01:02:18;;;;;;;0.00;0.00;;;11.30;99.90;;;;;;5059631;28;20049;-80
2022/09/26 01:04:45;;;;;;;0.00;0.00;;;11.20;99.90;;;;;;5075987;28;20499;-81
2022/09/26 01:07:16;;;;;;;0.00;0.00;;;11.20;99.90;;;;;;5059224;28;20047;-80
2022/09/26 01:09:42;;;;;;;0.00;0.00;;;11.20;99.90;;;;;;5075822;28;20098;-80
2022/09/26 01:12:09;;;;;;;0.00;0.00;;;11.20;99.90;;;;;;5058943;28;20442;-80
2022/09/26 01:14:37;;;;;;;0.00;0.00;;;11.30;99.90;;;;;;5092622;28;20053;-80
2022/09/26 01:17:03;;;;;;;0.00;0.00;;;11.20;99.90;;;;;;5075477;28;20047;-80
2022/09/26 01:19:49;;;;;;;0.17;0.10;;;11.20;99.90;;;;;;5058941;28;20091;-80
2022/09/26 01:22:46;;;;;;;0.00;0.00;;;11.20;99.90;;;;;;5058633;28;20098;-80
2022/09/26 01:25:22;;;;;;;0.10;0.10;;;11.20;99.90;;;;;;5058763;28;20538;-80
2022/09/26 01:28:12;;;;;;;0.00;0.00;;;11.20;99.90;;;;;;5059048;28;20047;-80
2022/09/26 01:30:46;;;;;;;0.00;0.00;;;11.20;99.90;;;;;;5058899;28;20048;-80
2022/09/26 01:33:38;;;;;;;0.00;0.00;;;11.20;99.90;;;;;;5059044;28;20125;-80
2022/09/26 01:36:38;;;;;;;1.08;0.00;;;11.20;99.90;;;;;;5038020;28;20111;-80
2022/09/26 01:39:12;;;;;;;0.00;0.00;;;11.20;99.90;;;;;;5037573;28;20489;-80
2022/09/26 01:41:43;;;;;;;0.00;0.00;;;11.20;99.90;;;;;;5020875;28;20045;-80
2022/09/26 01:44:30;;;;;;;0.00;0.00;;;11.20;99.90;;;;;;5037794;28;20362;-80
2022/09/26 01:47:18;;;;;;;0.00;0.00;;;11.20;99.90;;;;;;5021036;28;20056;-80
2022/09/26 01:49:59;;;;;;;0.00;0.00;;;11.20;99.90;;;;;;5021302;28;20087;-80
2022/09/26 01:52:41;;;;;;;0.00;0.00;;;11.20;99.90;;;;;;5037621;28;20049;-80
2022/09/26 01:55:13;;;;;;;0.00;0.00;;;11.20;99.90;;;;;;5021137;28;20056;-80
2022/09/26 01:58:00;;;;;;;0.00;0.00;;;11.20;99.90;;;;;;5020839;28;20055;-80
2022/09/26 02:00:27;;;;;;;0.00;0.00;;;11.20;99.90;;;;;;5020642;28;20114;-80
2022/09/26 02:02:55;;;;;;;0.00;0.00;;;11.20;99.90;;;;;;5020417;28;20479;-80
2022/09/26 02:05:45;;;;;;;0.00;0.00;;;11.10;99.90;;;;;;5037252;28;20107;-81
2022/09/26 02:08:46;;;;;;;0.55;0.45;;;11.10;99.90;;;;;;5037253;28;20493;-80
2022/09/26 02:11:17;;;;;;;0.00;0.00;;;11.20;99.90;;;;;;4939514;29;20066;-80
2022/09/26 02:14:20;;;;;;;0.00;0.00;;;11.10;99.90;;;;;;4969252;28;20226;-81
2022/09/26 02:16:53;;;;;;;0.00;0.00;;;11.20;99.90;;;;;;4962006;28;20062;-81
2022/09/26 02:19:34;;;;;;;0.00;0.00;;;11.10;99.90;;;;;;4978124;28;20038;-81
2022/09/26 02:22:00;;;;;;;0.80;0.00;;;11.20;99.90;;;;;;4977825;28;20061;-80
2022/09/26 02:24:27;;;;;;;0.00;0.00;;;11.20;99.90;;;;;;4961654;28;20166;-80
2022/09/26 02:26:53;;;;;;;0.57;0.20;;;11.20;99.90;;;;;;4977598;28;20050;-80
2022/09/26 02:29:19;;;;;;;0.00;0.00;;;11.20;99.90;;;;;;4977612;28;20054;-80
2022/09/26 02:31:57;;;;;;;0.20;0.20;;;11.20;99.90;;;;;;4977919;28;20054;-80
2022/09/26 02:34:24;;;;;;;0.00;0.00;;;11.20;99.90;;;;;;4961612;28;20140;-80
2022/09/26 02:36:51;;;;;;;0.00;0.00;;;11.20;99.90;;;;;;4977659;28;20547;-80
2022/09/26 02:39:16;;;;;;;0.00;0.00;;;11.30;99.90;;;;;;4961942;28;20073;-80
2022/09/26 02:42:20;;;;;;;0.00;0.00;;;11.30;99.90;;;;;;4961737;28;20113;-80
2022/09/26 02:45:13;;;;;;;0.00;0.00;;;11.20;99.90;;;;;;4964855;28;20050;-80
2022/09/26 02:48:07;;;;;;;0.00;0.00;;;11.20;99.90;;;;;;5021054;28;20133;-80
2022/09/26 02:51:06;;;;;;;0.00;0.00;;;11.30;99.90;;;;;;5075061;28;20396;-80
2022/09/26 02:53:40;;;;;;;0.20;0.20;;;11.30;99.90;;;;;;5057483;28;20048;-81
2022/09/26 02:56:33;;;;;;;0.00;0.00;;;11.30;99.90;;;;;;5090911;28;20041;-81
2022/09/26 02:59:02;;;;;;;0.10;0.00;;;11.20;99.90;;;;;;5057238;28;20139;-80
2022/09/26 03:01:49;;;;;;;0.10;0.10;;;11.20;99.90;;;;;;5073349;28;20080;-80
2022/09/26 03:04:44;;;;;;;0.00;0.00;;;11.30;99.90;;;;;;5057144;28;20084;-80
2022/09/26 03:07:15;;;;;;;3.70;0.00;;;11.20;99.90;;;;;;5035525;28;20481;-81
2022/09/26 03:09:42;;;;;;;0.10;0.10;;;11.30;99.90;;;;;;5036173;28;20045;-81
2022/09/26 03:12:10;;;;;;;0.15;0.15;;;11.20;99.90;;;;;;5035976;28;20052;-81
2022/09/26 03:14:39;;;;;;;0.00;0.00;;;11.20;99.90;;;;;;5035954;28;20095;-81
2022/09/26 03:17:05;;;;;;;0.57;0.10;;;11.20;99.90;;;;;;5019380;28;20088;-81
2022/09/26 03:19:35;;;;;;;0.00;0.00;;;11.30;99.90;;;;;;5036004;28;20130;-81
2022/09/26 03:22:01;;;;;;;0.03;0.00;;;11.30;99.90;;;;;;5019213;28;20140;-80
2022/09/26 03:24:27;;;;;;;0.00;0.00;;;11.30;99.90;;;;;;5018799;28;20076;-81
2022/09/26 03:26:54;;;;;;;0.00;0.00;;;11.20;99.90;;;;;;5035832;28;20555;-81
2022/09/26 03:29:19;;;;;;;0.00;0.00;;;11.20;99.90;;;;;;5035653;28;20056;-81
2022/09/26 03:31:48;;;;;;;0.10;0.10;;;11.10;99.90;;;;;;5035708;28;20060;-80
2022/09/26 03:34:15;;;;;;;0.00;0.00;;;11.20;99.90;;;;;;5035370;28;20560;-80
2022/09/26 03:36:40;;;;;;;0.00;0.00;;;11.20;99.90;;;;;;5019274;28;20099;-80
2022/09/26 03:39:06;;;;;;;0.00;0.00;;;11.20;99.90;;;;;;5035534;28;20084;-80
2022/09/26 03:41:33;;;;;;;0.00;0.00;;;11.20;99.90;;;;;;5018677;28;20404;-80
2022/09/26 03:43:59;;;;;;;0.10;0.00;;;11.20;99.90;;;;;;5054352;28;20139;-80
2022/09/26 03:46:24;;;;;;;0.00;0.00;;;11.20;99.90;;;;;;5073134;28;20076;-80
2022/09/26 03:48:50;;;;;;;0.38;0.20;;;11.20;99.90;;;;;;5073050;28;20465;-80
2022/09/26 03:51:16;;;;;;;0.15;0.15;;;11.10;99.90;;;;;;5073468;28;20139;-80
2022/09/26 03:53:45;;;;;;;0.00;0.00;;;11.10;99.90;;;;;;5056574;28;20060;-81
2022/09/26 03:56:14;;;;;;;0.00;0.00;;;11.10;99.90;;;;;;5072974;28;20052;-80
2022/09/26 03:58:40;;;;;;;0.00;0.00;;;11.10;99.90;;;;;;5073198;28;20045;-80
2022/09/26 04:01:14;;;;;;;0.00;0.00;;;11.10;99.90;;;;;;5056350;28;20052;-80
2022/09/26 04:03:41;;;;;;;0.55;0.20;;;11.10;99.90;;;;;;5056169;28;20049;-80
2022/09/26 04:06:09;;;;;;;0.00;0.00;;;11.00;99.90;;;;;;5073136;28;20048;-81
2022/09/26 04:08:39;;;;;;;0.00;0.00;;;11.00;99.90;;;;;;5056261;28;20044;-81
2022/09/26 04:11:11;;;;;;;0.00;0.00;;;11.00;99.90;;;;;;5056509;28;20061;-81
2022/09/26 04:13:37;;;;;;;0.00;0.00;;;11.00;99.90;;;;;;5057436;28;20369;-80
2022/09/26 04:16:07;;;;;;;0.00;0.00;;;11.00;99.90;;;;;;5076982;28;20037;-81
2022/09/26 04:18:34;;;;;;;0.00;0.00;;;11.00;99.90;;;;;;5060287;28;20056;-80
2022/09/26 04:21:02;;;;;;;0.00;0.00;;;11.00;99.90;;;;;;5059511;28;20036;-81
2022/09/26 04:23:29;;;;;;;0.00;0.00;;;10.90;99.90;;;;;;5060220;28;20058;-81
2022/09/26 04:25:54;;;;;;;0.00;0.00;;;11.00;99.90;;;;;;5076792;28;20108;-80
2022/09/26 04:28:20;;;;;;;0.00;0.00;;;11.00;99.90;;;;;;5060524;28;20092;-81
2022/09/26 04:30:46;;;;;;;0.00;0.00;;;11.00;99.90;;;;;;5060480;28;20056;-81
2022/09/26 04:33:12;;;;;;;4.75;0.75;;;10.90;99.90;;;;;;5061836;28;20148;-80
2022/09/26 04:35:37;;;;;;;0.00;0.00;;;10.90;99.90;;;;;;5069457;28;20111;-80
2022/09/26 04:38:03;;;;;;;0.00;0.00;;;11.00;99.90;;;;;;5086531;28;20094;-80
2022/09/26 04:40:30;;;;;;;0.00;0.00;;;10.90;99.90;;;;;;5094246;28;20087;-80
2022/09/26 04:42:56;;;;;;;0.00;0.00;;;11.00;99.90;;;;;;5076339;28;20048;-81
2022/09/26 04:45:22;;;;;;;0.35;0.00;;;10.90;99.90;;;;;;5059897;28;20040;-80
2022/09/26 04:47:48;;;;;;;1.02;0.30;;;11.00;99.90;;;;;;5076315;28;20090;-80
2022/09/26 04:50:13;;;;;;;0.00;0.00;;;10.90;99.90;;;;;;5059446;28;20552;-81
2022/09/26 04:52:39;;;;;;;0.10;0.00;;;10.90;99.90;;;;;;5059663;28;20131;-81
2022/09/26 04:55:06;;;;;;;0.52;0.00;;;10.90;99.90;;;;;;5059741;28;20058;-81
2022/09/26 04:57:32;;;;;;;0.00;0.00;;;10.90;99.90;;;;;;5076088;28;20048;-81
2022/09/26 04:59:57;;;;;;;0.00;0.00;;;10.90;99.90;;;;;;5076084;28;20040;-81
2022/09/26 05:02:23;;;;;;;0.00;0.00;;;10.90;99.90;;;;;;5059202;28;20063;-80
2022/09/26 05:04:50;;;;;;;0.03;0.00;;;10.90;99.90;;;;;;5059357;28;20147;-81
2022/09/26 05:07:17;;;;;;;0.05;0.05;;;10.90;99.90;;;;;;5058944;28;20462;-81
2022/09/26 05:09:43;;;;;;;0.00;0.00;;;10.80;99.90;;;;;;5076263;28;20045;-81
2022/09/26 05:12:09;;;;;;;0.03;0.03;;;10.90;99.90;;;;;;5059033;28;20060;-81
2022/09/26 05:14:35;;;;;;;0.30;0.30;;;10.90;99.90;;;;;;5075682;28;20040;-80
2022/09/26 05:17:01;;;;;;;0.63;0.10;;;10.90;99.90;;;;;;5075927;28;20186;-80
2022/09/26 05:19:26;;;;;;;0.00;0.00;;;10.90;99.90;;;;;;5075747;28;20041;-80
2022/09/26 05:21:52;;;;;;;0.00;0.00;;;10.80;99.90;;;;;;5075619;28;20045;-80
2022/09/26 05:27:04;;;;;;;0.20;0.20;;;10.90;99.90;;;;;;5075245;28;20051;-80
2022/09/26 05:29:30;;;;;;;0.00;0.00;;;10.90;99.90;;;;;;5075397;28;20478;-80
2022/09/26 05:31:56;;;;;;;0.00;0.00;;;10.80;99.90;;;;;;5075847;28;20052;-80
2022/09/26 05:34:24;;;;;;;0.10;0.10;;;10.90;99.90;;;;;;5075442;28;20048;-80
2022/09/26 05:36:51;;;;;;;0.00;0.00;;;10.80;99.90;;;;;;5092350;28;20083;-81
2022/09/26 05:42:04;;;;;;;0.00;0.00;;;10.80;99.90;;;;;;5075289;28;20061;-81
2022/09/26 05:44:30;;;;;;;0.00;0.00;;;10.80;99.90;;;;;;5059041;28;20051;-81
2022/09/26 05:46:56;;;;;;;0.10;0.10;;;10.80;99.90;;;;;;5075117;28;20489;-81
2022/09/26 05:49:22;;;;;;;0.45;0.45;;;10.80;99.90;;;;;;5058654;28;20097;-81
2022/09/26 05:51:48;;;;;;;0.10;0.00;;;10.80;99.90;;;;;;5058382;28;20051;-81
2022/09/26 05:54:13;;;;;;;0.45;0.45;;;10.80;99.90;;;;;;5058649;28;20392;-81
2022/09/26 05:56:39;;;;;;;0.65;0.57;;;10.80;99.90;;;;;;5075073;28;20045;-81
2022/09/26 05:59:05;;;;;;;0.00;0.00;;;10.80;99.90;;;;;;5075610;28;20032;-82
2022/09/26 06:01:32;;;;;;;0.08;0.08;;;10.80;99.90;;;;;;5074697;28;20416;-81
2022/09/26 06:03:58;;;;;;;0.10;0.05;;;10.80;99.90;;;;;;5057976;28;20100;-81
2022/09/26 06:06:24;;;;;;;3.20;0.20;;;10.90;99.90;;;;;;5058318;28;20053;-81
2022/09/26 06:08:50;;;;;;;0.25;0.05;;;10.90;99.90;;;;;;5058374;28;20036;-81
2022/09/26 06:11:21;;;;;;;0.00;0.00;;;10.80;99.90;;;;;;5058436;28;20385;-81
2022/09/26 06:13:48;;;;;;;0.00;0.00;;;10.90;99.90;;;;;;5058361;28;20064;-81
2022/09/26 06:16:19;;;;;;;0.25;0.20;;;10.80;99.90;;;;;;5074984;28;20044;-81
2022/09/26 06:18:48;;;;;;;0.00;0.00;;;10.90;99.90;;;;;;5058386;28;20481;-81
2022/09/26 06:21:15;;;;;;;0.43;0.28;;;10.80;99.90;;;;;;5076990;28;20050;-81
2022/09/26 06:23:42;;;;;;;0.00;0.00;;;10.90;99.90;;;;;;5095205;28;20439;-80
2022/09/26 06:26:11;;;;;;;0.40;0.40;;;10.80;99.90;;;;;;5077864;28;20426;-81
2022/09/26 06:28:37;;;;;;;0.63;0.20;;;10.80;99.90;;;;;;5058160;28;20439;-81
2022/09/26 06:31:17;;;;;;;2.25;0.77;;;10.80;99.90;;;;;;5058065;28;20055;-81
2022/09/26 06:33:48;;;;;;;0.13;0.13;;;10.80;99.90;;;;;;5074010;28;20114;-81
2022/09/26 06:36:13;;;;;;;0.08;0.08;;;10.80;99.90;;;;;;5074337;28;20040;-81
2022/09/26 06:38:39;;;;;;;0.00;0.00;;;10.80;99.90;;;;;;5091788;28;20044;-81
2022/09/26 06:41:06;;;;;;;0.32;0.20;;;10.80;99.90;;;;;;5073652;28;20082;-81
2022/09/26 06:43:32;;;;;;;0.00;0.00;;;10.80;99.90;;;;;;5057540;28;20084;-81
2022/09/26 06:45:58;;;;;;;0.00;0.00;;;10.80;99.90;;;;;;5073699;28;20106;-82
2022/09/26 06:48:24;;;;;;;0.15;0.15;;;10.80;99.90;;;;;;5074788;28;20049;-81
2022/09/26 06:50:51;;;;;;;0.10;0.05;;;10.80;99.90;;;;;;5057684;28;20079;-81
2022/09/26 06:53:17;;;;;;;5.82;0.95;;;10.70;99.90;;;;;;5057987;28;20060;-81
2022/09/26 06:55:42;;;;;;;0.30;0.30;;;10.80;99.90;;;;;;5090943;28;20074;-81
2022/09/26 06:58:08;;;;;;;0.00;0.00;;;10.80;99.90;;;;;;5057354;28;20044;-81
2022/09/26 07:00:34;;;;;;;1.17;0.20;;;10.80;99.90;;;;;;5057511;28;20139;-81
2022/09/26 07:03:00;;;;;;;0.00;0.00;;;10.80;99.90;;;;;;5056847;28;20041;-80
2022/09/26 07:05:26;;;;;;;0.13;0.00;;;10.90;99.90;;;;;;5057175;28;20439;-81
2022/09/26 07:07:52;;;;;;;0.00;0.00;;;10.90;99.90;;;;;;5057532;28;20053;-81
2022/09/26 07:10:18;;;;;;;0.00;0.00;;;11.00;99.90;;;;;;5057221;28;20151;-80
2022/09/26 07:12:47;;;;;;;0.00;0.00;;;11.00;99.90;;;;;;5073812;28;20127;-82
2022/09/26 07:15:15;;;;;;;1.10;0.40;;;11.00;99.90;;;;;;5073709;28;20044;-81
2022/09/26 07:17:43;;;;;;;0.00;0.00;;;11.00;99.90;;;;;;5057557;28;20049;-81
2022/09/26 07:20:13;;;;;;;0.45;0.00;;;11.00;99.90;;;;;;5056632;28;20476;-81
2022/09/26 07:22:39;;;;;;;0.90;0.25;;;11.10;99.90;;;;;;5073737;28;20361;-81
2022/09/26 07:25:05;;;;;;;0.00;0.00;;;11.20;99.90;;;;;;5073592;28;20131;-81
2022/09/26 07:27:31;;;;;;;0.00;0.00;;;11.10;99.90;;;;;;5057070;28;20049;-82
2022/09/26 07:29:57;;;;;;;0.00;0.00;;;11.10;99.90;;;;;;5073165;28;20135;-81
2022/09/26 07:32:24;;;;;;;0.43;0.00;;;11.10;99.90;;;;;;5057072;28;20048;-82
2022/09/26 07:34:51;;;;;;;0.00;0.00;;;11.20;99.90;;;;;;5073907;28;20040;-81
2022/09/26 07:37:16;;;;;;;0.00;0.00;;;11.10;99.90;;;;;;5073669;28;20498;-80
2022/09/26 07:39:42;;;;;;;0.00;0.00;;;11.20;99.90;;;;;;5073040;28;20159;-80
2022/09/26 07:42:08;;;;;;;0.00;0.00;;;11.10;99.90;;;;;;5056391;28;20045;-81
2022/09/26 07:44:34;;;;;;;0.00;0.00;;;11.10;99.90;;;;;;5073270;28;20476;-81
2022/09/26 07:52:29;;;;;;;0.00;0.00;;;11.10;99.90;;;;;;5072979;28;20499;-80
2022/09/26 07:54:55;;;;;;;0.10;0.10;;;11.10;99.90;;;;;;5073669;28;20049;-80
2022/09/26 07:57:20;;;;;;;0.55;0.38;;;11.10;99.90;;;;;;5056489;28;20074;-80
2022/09/26 07:59:49;;;;;;;0.10;0.08;;;11.10;99.90;;;;;;5072952;28;20059;-80
2022/09/26 08:02:35;;;;;;;0.00;0.00;;;11.00;99.90;;;;;;5090048;28;20059;-80
2022/09/26 08:05:02;;;;;;;0.85;0.22;;;11.00;99.90;;;;;;5073084;28;20057;-81
2022/09/26 08:07:28;;;;;;;0.00;0.00;;;11.00;99.90;;;;;;5056316;28;20481;-80
2022/09/26 08:09:55;;;;;;;0.00;0.00;;;11.00;99.90;;;;;;5056718;28;20057;-80
2022/09/26 08:12:21;;;;;;;0.20;0.00;;;11.00;99.90;;;;;;5056827;28;20106;-80
2022/09/26 08:14:48;;;;;;;1.15;0.25;;;11.00;99.90;;;;;;5073005;28;20048;-80
2022/09/26 08:17:18;;;;;;;0.00;0.00;;;11.00;99.90;;;;;;5073043;28;20396;-80
2022/09/26 08:19:43;;;;;;;0.00;0.00;;;11.00;99.90;;;;;;5072683;28;20365;-80
2022/09/26 08:22:11;;;;;;;1.05;0.35;;;11.10;99.90;;;;;;5072487;28;20052;-80
2022/09/26 08:24:37;;;;;;;0.35;0.30;;;11.10;99.90;;;;;;5056354;28;20147;-80
2022/09/26 08:27:04;;;;;;;0.00;0.00;;;11.20;99.90;;;;;;5073266;28;20075;-81
2022/09/26 08:29:32;;;;;;;0.00;0.00;;;11.30;99.90;;;;;;5072621;28;20067;-79
2022/09/26 08:32:01;;;;;;;0.45;0.45;;;11.40;99.90;;;;;;5056092;28;20106;-80
2022/09/26 08:34:27;;;;;;;0.00;0.00;;;11.40;99.90;;;;;;5088974;28;20140;-80
2022/09/26 08:36:53;;;;;;;0.00;0.00;;;11.50;99.90;;;;;;5072350;28;20084;-81
2022/09/26 08:39:20;;;;;;;0.05;0.05;;;11.60;99.90;;;;;;5071957;28;20094;-81
2022/09/26 08:42:22;;;;;;;0.00;0.00;;;11.60;99.90;;;;;;5072138;28;20057;-81
2022/09/26 08:46:29;;;;;;;0.20;0.00;;;11.60;99.90;;;;;;5056004;28;20056;-81
2022/09/26 08:48:19;;;;;;;0.00;0.00;;;11.70;99.90;;;;;;5072778;28;20052;-81
2022/09/26 08:51:27;;;;;;;0.00;0.00;;;11.70;99.90;;;;;;5056403;28;20049;-81
2022/09/26 08:54:17;;;;;;;0.22;0.00;;;11.70;99.90;;;;;;5034909;28;20143;-81
2022/09/26 08:56:47;;;;;;;0.10;0.00;;;11.70;99.90;;;;;;5019212;28;20100;-81
2022/09/26 08:59:30;;;;;;;0.00;0.00;;;11.70;99.90;;;;;;5034289;28;20143;-81
2022/09/26 09:02:01;;;;;;;0.13;0.05;;;11.60;99.90;;;;;;5020737;28;20052;-81
2022/09/26 09:05:01;;;;;;;0.00;0.00;;;11.60;99.90;;;;;;5022512;28;20146;-80
2022/09/26 09:07:26;;;;;;;0.00;0.00;;;11.60;99.90;;;;;;5038496;28;20041;-80
2022/09/26 09:10:03;;;;;;;0.00;0.00;;;11.60;99.90;;;;;;5037686;28;20140;-80
2022/09/26 09:13:08;;;;;;;0.08;0.08;;;11.70;99.90;;;;;;5020210;28;20053;-80
2022/09/26 09:16:19;;;;;;;0.00;0.00;;;11.80;99.90;;;;;;5021415;28;20147;-80
2022/09/26 09:19:04;;;;;;;0.05;0.05;;;11.80;99.90;;;;;;5021736;28;20052;-80
2022/09/26 09:21:40;;;;;;;0.00;0.00;;;11.90;99.90;;;;;;5038206;28;20041;-80
2022/09/26 09:24:44;;;;;;;0.20;0.20;;;11.90;99.90;;;;;;5021742;28;20064;-79
2022/09/26 09:27:37;;;;;;;2.08;0.32;;;11.90;99.90;;;;;;4940531;29;20149;-80
2022/09/26 09:30:08;;;;;;;0.00;0.00;;;11.90;99.90;;;;;;4951364;28;20415;-80
2022/09/26 09:32:53;;;;;;;0.20;0.20;;;12.00;99.90;;;;;;4978962;28;20150;-80
2022/09/26 09:35:28;;;;;;;0.45;0.45;;;12.00;99.90;;;;;;4962957;28;20446;-80
2022/09/26 09:37:53;;;;;;;;;;;12.00;99.90;;;;;;4963447;28;20058;-80
2022/09/26 09:40:43;;;;;;;0.00;0.00;;;12.00;99.90;;;;;;4962758;28;20433;-79
2022/09/26 09:43:18;;;;;;;0.05;0.05;;;12.00;99.90;;;;;;4962419;28;20050;-81
2022/09/26 09:45:49;;;;;;;0.60;0.60;;;12.00;99.90;;;;;;4979038;28;20619;-81
2022/09/26 09:48:15;;;;;;;3.83;1.02;;;11.90;99.90;;;;;;4969994;28;20114;-81
2022/09/26 09:51:16;;;;;;;0.00;0.00;;;11.90;99.90;;;;;;4967573;28;20448;-81
2022/09/26 09:54:10;;;;;;;0.80;0.63;;;11.90;99.90;;;;;;4940344;28;20059;-81
2022/09/26 09:57:28;;;;;;;0.00;0.00;;;11.80;99.90;;;;;;4943723;29;20051;-82
2022/09/26 10:00:15;;;;;;;0.00;0.00;;;11.80;99.90;;;;;;4943640;29;20059;-83
2022/09/26 10:02:46;;;;;;;0.73;0.15;;;11.80;99.90;;;;;;4921448;29;20050;-82
2022/09/26 10:05:46;;;;;;;0.00;0.00;;;11.80;99.90;;;;;;4970698;28;20051;-79
2022/09/26 10:08:28;;;;;;;0.10;0.10;;;11.80;99.90;;;;;;4975378;28;20051;-81
2022/09/26 10:11:15;;;;;;;0.00;0.00;;;11.80;99.90;;;;;;4975296;28;20063;-81
2022/09/26 10:13:43;;;;;;;0.00;0.00;;;11.70;99.90;;;;;;4974773;28;20116;-80
2022/09/26 10:16:14;;;;;;;0.10;0.10;;;11.70;99.90;;;;;;4975085;28;20054;-80
2022/09/26 10:19:05;;;;;;;0.00;0.00;;;11.60;99.90;;;;;;4975091;28;20062;-80
2022/09/26 10:21:42;;;;;;;0.00;0.00;;;11.70;99.90;;;;;;4974995;28;20046;-80
2022/09/26 10:24:33;;;;;;;0.60;0.08;;;11.60;99.90;;;;;;4974973;28;20066;-81
2022/09/26 10:27:17;;;;;;;0.35;0.10;;;11.70;99.90;;;;;;4975029;28;20656;-81
2022/09/26 10:29:44;;;;;;;0.32;0.10;;;11.70;99.90;;;;;;4982231;28;20082;-80
2022/09/26 10:32:10;;;;;;;0.32;0.32;;;11.70;99.90;;;;;;5018064;28;20041;-80
2022/09/26 10:34:38;;;;;;;0.10;0.10;;;11.70;99.90;;;;;;5018139;28;20053;-80
2022/09/26 10:37:24;;;;;;;0.00;0.00;;;11.70;99.90;;;;;;5050511;28;20528;-81
2022/09/26 10:42:39;;;;;;;0.00;0.00;;;11.70;99.90;;;;;;5034141;28;20055;-80
2022/09/26 10:45:14;;;;;;;1.48;0.45;;;11.70;99.90;;;;;;5034411;28;20033;-80
2022/09/26 10:47:44;;;;;;;0.05;0.00;;;11.70;99.90;;;;;;5017744;28;20136;-80
2022/09/26 10:50:23;;;;;;;0.00;0.00;;;11.70;99.90;;;;;;5035191;28;20455;-79
2022/09/26 10:52:53;;;;;;;0.00;0.00;;;11.80;99.90;;;;;;5017918;28;20107;-80
2022/09/26 10:55:25;;;;;;;0.32;0.28;;;11.80;99.90;;;;;;5050847;28;20041;-80
2022/09/26 10:57:55;;;;;;;0.00;0.00;;;11.80;99.90;;;;;;5066684;28;20053;-82
2022/09/26 11:00:36;;;;;;;0.00;0.00;;;11.80;99.90;;;;;;5030904;28;20041;-82
2022/09/26 11:03:13;;;;;;;0.00;0.00;;;11.80;99.90;;;;;;5053069;28;20133;-82
2022/09/26 11:05:57;;;;;;;0.25;0.00;;;11.80;99.90;;;;;;5033009;28;20524;-82
2022/09/26 11:08:33;;;;;;;0.00;0.00;;;11.80;99.90;;;;;;5016589;28;20136;-83
2022/09/26 11:11:02;;;;;;;0.00;0.00;;;11.80;99.90;;;;;;5033059;28;20481;-82
2022/09/26 11:13:37;;;;;;;0.15;0.10;;;11.80;99.90;;;;;;5016929;28;20053;-82
2022/09/26 11:16:09;;;;;;;3.72;0.80;;;11.70;99.90;;;;;;5016747;28;20140;-83
2022/09/26 11:18:41;;;;;;;0.00;0.00;;;11.80;99.90;;;;;;5016877;28;20056;-82
2022/09/26 11:21:29;;;;;;;0.10;0.00;;;11.80;99.90;;;;;;5016107;28;20057;-82
2022/09/26 11:24:01;;;;;;;0.00;0.00;;;11.80;99.90;;;;;;5040675;28;20489;-81
2022/09/26 11:26:36;;;;;;;5.82;0.60;;;11.70;99.90;;;;;;5036281;28;20053;-81
2022/09/26 11:29:22;;;;;;;0.10;0.10;;;11.70;99.90;;;;;;5031154;28;20478;-81
2022/09/26 11:31:48;;;;;;;0.00;0.00;;;11.70;99.90;;;;;;5030928;28;20063;-82
2022/09/26 11:34:21;;;;;;;0.10;0.10;;;11.70;99.90;;;;;;5033219;28;20056;-82
2022/09/26 11:37:00;;;;;;;0.10;0.10;;;11.80;99.90;;;;;;5034307;28;20044;-81
2022/09/26 11:39:45;;;;;;;1.65;0.77;;;11.70;99.90;;;;;;5051107;28;20053;-81
2022/09/26 11:42:21;;;;;;;0.65;0.15;;;11.80;99.90;;;;;;5051158;28;20049;-81
2022/09/26 11:44:57;;;;;;;0.00;0.00;;;11.70;99.90;;;;;;5053816;28;20465;-82
2022/09/26 11:47:49;;;;;;;0.10;0.10;;;11.80;99.90;;;;;;5035212;28;20045;-81
2022/09/26 11:50:19;;;;;;;0.08;0.00;;;11.80;99.90;;;;;;5051518;28;20397;-81
2022/09/26 11:52:57;;;;;;;0.00;0.00;;;11.80;99.90;;;;;;5051334;28;20053;-81
2022/09/26 11:55:49;;;;;;;0.73;0.10;;;11.80;99.90;;;;;;5051501;28;20060;-82
2022/09/26 11:58:42;;;;;;;0.00;0.00;;;11.80;99.90;;;;;;5034859;28;20060;-81
2022/09/26 12:01:53;;;;;;;0.17;0.17;;;11.80;99.90;;;;;;5070530;28;20056;-81
2022/09/26 12:04:53;;;;;;;0.00;0.00;;;11.90;99.90;;;;;;5014009;28;20109;-82
2022/09/26 12:07:36;;;;;;;0.10;0.00;;;11.90;99.90;;;;;;5013903;28;20061;-81
2022/09/26 12:10:39;;;;;;;0.00;0.00;;;12.00;99.90;;;;;;4994604;28;20580;-83
2022/09/26 12:13:33;;;;;;;0.08;0.08;;;11.90;99.90;;;;;;4990879;28;20062;-82
2022/09/26 12:16:05;;;;;;;0.00;0.00;;;11.90;99.90;;;;;;5001688;28;20057;-82
2022/09/26 12:18:31;;;;;;;0.28;0.20;;;11.90;99.90;;;;;;4990981;28;20525;-81
2022/09/26 12:21:14;;;;;;;0.00;0.00;;;12.00;99.90;;;;;;4974198;28;20431;-82
2022/09/26 12:23:47;;;;;;;0.05;0.05;;;12.00;99.90;;;;;;5010052;28;20050;-81
2022/09/26 12:26:48;;;;;;;3.83;0.60;;;11.90;99.90;;;;;;4993950;28;20069;-82
2022/09/26 12:29:33;;;;;;;0.00;0.00;;;11.90;99.90;;;;;;4994228;28;20604;-81
2022/09/26 12:32:45;;;;;;;0.00;0.00;;;11.90;99.90;;;;;;4993894;28;20536;-81
2022/09/26 12:35:17;;;;;;;1.17;0.47;;;11.90;99.90;;;;;;4973083;28;20057;-82
2022/09/26 12:38:01;;;;;;;0.00;0.00;;;12.00;99.90;;;;;;4974968;28;20059;-81
2022/09/26 12:40:34;;;;;;;0.10;0.10;;;11.90;99.90;;;;;;4986452;28;20128;-82
2022/09/26 12:43:03;;;;;;;0.10;0.00;;;11.90;99.90;;;;;;4980855;28;20557;-82
2022/09/26 12:45:43;;;;;;;0.00;0.00;;;11.90;99.90;;;;;;4997528;28;20100;-81
2022/09/26 12:48:26;;;;;;;0.00;0.00;;;11.90;99.90;;;;;;4997223;28;20053;-82
2022/09/26 12:50:54;;;;;;;0.00;0.00;;;11.90;99.90;;;;;;4997146;28;20637;-82
2022/09/26 12:54:00;;;;;;;0.00;0.00;;;11.90;99.90;;;;;;4976534;28;20120;-83
2022/09/26 12:56:29;;;;;;;;;;;12.00;99.90;;;;;;4981568;28;20046;-83
2022/09/26 12:59:21;;;;;;;0.00;0.00;;;12.00;99.90;;;;;;4993883;28;19976;-82
2022/09/26 13:02:23;;;;;;;0.00;0.00;;;12.00;99.90;;;;;;4993976;28;20049;-82
2022/09/26 13:05:21;;;;;;;0.10;0.00;;;12.10;99.90;;;;;;4977221;28;20053;-82
2022/09/26 13:08:01;;;;;;;0.00;0.00;;;12.00;99.90;;;;;;4974670;28;20054;-81
2022/09/26 13:10:46;;;;;;;0.75;0.68;;;12.00;99.90;;;;;;5054628;28;20049;-82
2022/09/26 13:13:27;;;;;;;;;;;12.00;99.90;;;;;;5053666;28;20053;-81
2022/09/26 13:16:02;;;;;;;0.00;0.00;;;12.00;99.90;;;;;;5036666;28;19943;-82
2022/09/26 13:18:42;;;;;;;0.00;0.00;;;12.00;99.90;;;;;;5037826;28;20056;-82
2022/09/26 13:21:43;;;;;;;0.08;0.00;;;12.00;99.90;;;;;;5053873;28;20069;-83
2022/09/26 13:24:28;;;;;;;0.00;0.00;;;12.00;99.90;;;;;;5037246;28;20057;-82
2022/09/26 13:27:04;;;;;;;0.00;0.00;;;12.00;99.90;;;;;;5037832;28;20053;-82
2022/09/26 13:29:35;;;;;;;0.00;0.00;;;11.90;99.90;;;;;;5037938;28;20060;-82
2022/09/26 13:32:09;;;;;;;0.45;0.30;;;12.00;99.90;;;;;;5057757;28;20057;-83
2022/09/26 13:34:42;;;;;;;0.15;0.00;;;12.00;99.90;;;;;;5064859;28;20064;-83
2022/09/26 13:37:27;;;;;;;0.10;0.10;;;12.00;99.90;;;;;;5060401;28;20053;-83